Time;durP1;ratioP1;P1;durP2;ratioP2;P2;SDS_P1;SDS_P2;PMS_P1;PMS_P2;Temp;Humidity;BMP_temperature;BMP_pressure;BME280_temperature;BME280_humidity;BME280_pressure;Samples;Min_cycle;Max_cycle;Signal;HPM_P1;HPM_P2
2022/01/09 00:01:28;;;;;;;12.40;6.97;;;0.70;99.90;;;;;;5077471;28;20462;-69
2022/01/09 00:03:57;;;;;;;8.30;6.60;;;0.80;99.90;;;;;;5077561;28;20469;-71
2022/01/09 00:06:25;;;;;;;7.97;6.70;;;0.80;99.90;;;;;;5077407;28;20519;-70
2022/01/09 00:08:53;;;;;;;11.93;6.20;;;0.80;99.90;;;;;;5077785;28;20446;-70
2022/01/09 00:11:26;;;;;;;8.40;6.10;;;0.80;99.90;;;;;;5077086;28;20479;-70
2022/01/09 00:13:53;;;;;;;11.00;6.63;;;0.90;99.90;;;;;;5077424;28;20800;-69
2022/01/09 00:16:20;;;;;;;8.27;5.97;;;0.80;99.90;;;;;;5077061;28;20454;-70
2022/01/09 00:18:48;;;;;;;8.37;6.07;;;0.70;99.90;;;;;;5077148;28;20474;-70
2022/01/09 00:21:16;;;;;;;7.90;6.47;;;0.70;99.90;;;;;;5077168;28;20473;-69
2022/01/09 00:23:45;;;;;;;9.90;6.97;;;0.80;99.90;;;;;;5076822;28;20740;-69
2022/01/09 00:26:12;;;;;;;13.63;7.03;;;0.70;99.90;;;;;;5076363;28;20945;-70
2022/01/09 00:28:39;;;;;;;7.37;6.50;;;0.70;99.90;;;;;;5076581;28;20507;-69
2022/01/09 00:31:05;;;;;;;8.80;5.50;;;0.70;99.90;;;;;;5076450;28;20477;-69
2022/01/09 00:33:32;;;;;;;7.27;6.20;;;0.80;99.90;;;;;;5076555;28;20504;-70
2022/01/09 00:35:59;;;;;;;7.13;5.87;;;0.80;99.90;;;;;;5076472;28;20519;-70
2022/01/09 00:38:29;;;;;;;9.90;6.17;;;0.80;99.90;;;;;;5076636;28;20489;-71
2022/01/09 00:40:55;;;;;;;13.50;7.30;;;0.80;99.90;;;;;;5075825;28;20457;-70
2022/01/09 00:43:22;;;;;;;7.10;6.23;;;0.80;99.90;;;;;;5076547;28;20466;-70
2022/01/09 00:45:50;;;;;;;8.87;6.00;;;0.80;99.90;;;;;;5076291;28;20458;-69
2022/01/09 00:48:16;;;;;;;8.50;6.20;;;0.80;99.90;;;;;;5075869;28;20981;-71
2022/01/09 00:50:44;;;;;;;7.30;6.50;;;0.80;99.90;;;;;;5075889;28;20524;-70
2022/01/09 00:53:11;;;;;;;7.33;6.57;;;0.80;99.90;;;;;;5076971;28;20533;-70
2022/01/09 00:55:39;;;;;;;6.53;5.83;;;0.80;99.90;;;;;;5076359;28;20914;-69
2022/01/09 00:58:06;;;;;;;8.57;5.87;;;0.90;99.90;;;;;;5076239;28;20515;-70
2022/01/09 01:00:35;;;;;;;11.10;6.13;;;0.80;99.90;;;;;;5076059;28;20465;-70
2022/01/09 01:03:02;;;;;;;9.43;6.43;;;0.80;99.90;;;;;;5076116;28;20838;-70
2022/01/09 01:05:29;;;;;;;8.67;6.97;;;0.80;99.90;;;;;;5075763;28;20469;-70
2022/01/09 01:07:57;;;;;;;9.33;6.63;;;0.70;99.90;;;;;;5075730;28;20545;-71
2022/01/09 01:10:23;;;;;;;7.53;6.10;;;0.70;99.90;;;;;;5075711;28;20488;-70
2022/01/09 01:12:51;;;;;;;9.83;6.20;;;0.70;99.90;;;;;;5075707;28;20458;-71
2022/01/09 01:15:18;;;;;;;9.30;6.17;;;0.70;99.90;;;;;;5075580;28;20469;-70
2022/01/09 01:17:47;;;;;;;9.93;7.13;;;0.60;99.90;;;;;;5075553;28;20468;-68
2022/01/09 01:20:19;;;;;;;10.43;6.87;;;0.50;99.90;;;;;;5075798;28;20957;-72
2022/01/09 01:22:49;;;;;;;8.90;6.23;;;0.50;99.90;;;;;;5075617;28;20438;-70
2022/01/09 01:25:16;;;;;;;9.00;6.97;;;0.50;99.90;;;;;;5075513;28;20902;-70
2022/01/09 01:27:43;;;;;;;11.10;6.87;;;0.50;99.90;;;;;;5075608;28;20450;-70
2022/01/09 01:30:12;;;;;;;10.33;6.70;;;0.60;99.90;;;;;;5075557;28;20466;-70
2022/01/09 01:32:40;;;;;;;7.83;6.77;;;0.50;99.90;;;;;;5075464;28;20519;-70
2022/01/09 01:35:07;;;;;;;10.97;7.77;;;0.60;99.90;;;;;;5075829;28;20458;-69
2022/01/09 01:37:41;;;;;;;13.43;6.90;;;0.50;99.90;;;;;;5075518;28;20469;-69
2022/01/09 01:40:09;;;;;;;8.10;6.60;;;0.50;99.90;;;;;;5075330;28;20520;-70
2022/01/09 01:42:36;;;;;;;9.17;6.67;;;0.50;99.90;;;;;;5075384;28;20466;-70
2022/01/09 01:45:03;;;;;;;8.30;6.63;;;0.60;99.90;;;;;;5075731;28;20466;-70
2022/01/09 01:47:31;;;;;;;10.93;6.83;;;0.70;99.90;;;;;;5075226;28;20485;-69
2022/01/09 01:49:58;;;;;;;13.90;8.30;;;0.70;99.90;;;;;;5075180;28;20465;-70
2022/01/09 01:52:29;;;;;;;9.20;6.80;;;0.60;99.90;;;;;;5075259;28;20451;-70
2022/01/09 01:54:56;;;;;;;11.87;7.10;;;0.70;99.90;;;;;;5075103;28;20507;-71
2022/01/09 01:57:23;;;;;;;9.30;7.10;;;0.60;99.90;;;;;;5075699;28;20761;-71
2022/01/09 01:59:50;;;;;;;9.00;6.40;;;0.60;99.90;;;;;;5074847;28;20513;-70
2022/01/09 02:02:17;;;;;;;10.73;6.80;;;0.50;99.90;;;;;;5075342;28;20926;-70
2022/01/09 02:04:45;;;;;;;9.47;6.23;;;0.50;99.90;;;;;;5075042;28;20557;-70
2022/01/09 02:07:13;;;;;;;9.73;6.97;;;0.60;99.90;;;;;;5075381;28;20464;-70
2022/01/09 02:09:40;;;;;;;10.70;7.53;;;0.70;99.90;;;;;;5074902;28;20935;-69
2022/01/09 02:12:07;;;;;;;8.23;6.87;;;0.70;99.90;;;;;;5074938;28;20528;-70
2022/01/09 02:14:36;;;;;;;9.50;6.70;;;0.70;99.90;;;;;;5075069;28;20541;-70
2022/01/09 02:17:02;;;;;;;10.27;6.97;;;0.70;99.90;;;;;;5074981;28;20780;-69
2022/01/09 02:19:29;;;;;;;11.30;6.77;;;0.80;99.90;;;;;;5074459;28;20992;-69
2022/01/09 02:21:59;;;;;;;10.70;6.97;;;0.80;99.90;;;;;;5075083;28;20496;-69
2022/01/09 02:24:26;;;;;;;8.17;6.80;;;0.80;99.90;;;;;;5075014;28;20587;-70
2022/01/09 02:26:53;;;;;;;8.33;6.13;;;0.90;99.90;;;;;;5075138;28;20492;-69
2022/01/09 02:29:20;;;;;;;7.90;6.80;;;0.80;99.90;;;;;;5075141;28;20749;-70
2022/01/09 02:31:48;;;;;;;9.13;7.30;;;0.80;99.90;;;;;;5075148;28;20803;-70
2022/01/09 02:34:16;;;;;;;10.20;6.93;;;0.80;99.90;;;;;;5074670;28;20458;-69
2022/01/09 02:36:44;;;;;;;10.00;6.70;;;0.80;99.90;;;;;;5075251;28;20785;-70
2022/01/09 02:39:12;;;;;;;9.73;6.03;;;0.80;99.90;;;;;;5074737;28;20474;-70
2022/01/09 02:41:38;;;;;;;16.50;7.13;;;0.80;99.90;;;;;;5074772;28;20462;-70
2022/01/09 02:44:10;;;;;;;10.17;7.77;;;0.70;99.90;;;;;;5074291;28;20929;-70
2022/01/09 02:46:51;;;;;;;10.90;6.77;;;0.70;99.90;;;;;;5075555;28;20454;-71
2022/01/09 02:49:18;;;;;;;14.27;7.07;;;0.70;99.90;;;;;;5075344;28;20473;-70
2022/01/09 02:51:46;;;;;;;10.17;7.30;;;0.70;99.90;;;;;;5076326;28;20454;-70
2022/01/09 02:56:55;;;;;;;10.83;6.53;;;0.70;99.90;;;;;;5074294;28;20461;-70
2022/01/09 02:59:21;;;;;;;8.93;6.37;;;0.70;99.90;;;;;;5074216;28;20964;-70
2022/01/09 03:01:48;;;;;;;9.63;7.50;;;0.70;99.90;;;;;;5074003;28;20461;-70
2022/01/09 03:04:16;;;;;;;12.30;6.80;;;0.80;99.90;;;;;;5077896;28;20544;-69
2022/01/09 03:06:43;;;;;;;10.80;6.83;;;0.80;99.90;;;;;;5078313;28;20470;-70
2022/01/09 03:09:09;;;;;;;10.97;7.50;;;0.80;99.90;;;;;;5078197;28;20467;-70
2022/01/09 03:11:39;;;;;;;8.10;6.73;;;0.80;99.90;;;;;;5078573;28;20458;-70
2022/01/09 03:14:07;;;;;;;13.33;7.53;;;0.90;99.90;;;;;;5078257;28;20454;-70
2022/01/09 03:16:34;;;;;;;9.10;6.90;;;0.80;99.90;;;;;;5078440;28;20493;-71
2022/01/09 03:19:00;;;;;;;8.77;6.70;;;0.80;99.90;;;;;;5077908;28;20512;-70
2022/01/09 03:21:29;;;;;;;9.43;6.10;;;0.80;99.90;;;;;;5077839;28;20454;-70
2022/01/09 03:23:56;;;;;;;9.83;6.33;;;0.80;99.90;;;;;;5078618;28;20492;-70
2022/01/09 03:26:23;;;;;;;7.27;6.10;;;0.90;99.90;;;;;;5078034;28;20515;-70
2022/01/09 03:28:51;;;;;;;9.40;7.43;;;0.90;99.90;;;;;;5078806;28;20458;-70
2022/01/09 03:31:17;;;;;;;10.23;6.53;;;0.90;99.90;;;;;;5078463;28;20458;-70
2022/01/09 03:33:46;;;;;;;12.63;7.27;;;0.70;99.90;;;;;;5078195;28;20465;-70
2022/01/09 03:36:12;;;;;;;11.70;6.90;;;0.70;99.90;;;;;;5077909;28;20457;-70
2022/01/09 03:38:40;;;;;;;9.63;6.53;;;0.70;99.90;;;;;;5077848;28;20964;-70
2022/01/09 03:41:07;;;;;;;10.20;7.30;;;0.70;99.90;;;;;;5078050;28;20485;-70
2022/01/09 03:43:33;;;;;;;7.90;6.20;;;0.70;99.90;;;;;;5078036;28;20462;-70
2022/01/09 03:46:01;;;;;;;12.17;6.90;;;0.70;99.90;;;;;;5078047;28;20527;-70
2022/01/09 03:48:29;;;;;;;12.30;7.50;;;0.70;99.90;;;;;;5077252;28;20488;-70
2022/01/09 03:50:56;;;;;;;7.93;6.57;;;0.70;99.90;;;;;;5077578;28;20553;-70
2022/01/09 03:53:23;;;;;;;7.63;5.90;;;0.60;99.90;;;;;;5077208;28;20465;-69
2022/01/09 03:55:49;;;;;;;9.20;6.80;;;0.70;99.90;;;;;;5077788;28;20504;-70
2022/01/09 03:58:18;;;;;;;12.33;6.93;;;0.70;99.90;;;;;;5077432;28;20457;-69
2022/01/09 04:00:46;;;;;;;7.80;6.60;;;0.70;99.90;;;;;;5077659;28;20478;-70
2022/01/09 04:03:15;;;;;;;8.10;6.57;;;0.70;99.90;;;;;;5077094;28;20512;-70
2022/01/09 04:05:42;;;;;;;9.30;7.43;;;0.70;99.90;;;;;;5077467;28;20464;-70
2022/01/09 04:08:09;;;;;;;10.30;7.20;;;0.80;99.90;;;;;;5076870;28;20458;-70
2022/01/09 04:10:40;;;;;;;13.17;6.23;;;0.80;99.90;;;;;;5077405;28;20476;-72
2022/01/09 04:13:07;;;;;;;8.10;6.07;;;0.80;99.90;;;;;;5077080;28;20533;-70
2022/01/09 04:15:34;;;;;;;9.33;6.20;;;0.70;99.90;;;;;;5075725;28;20465;-70
2022/01/09 04:18:02;;;;;;;10.73;6.07;;;0.70;99.90;;;;;;5076620;28;20934;-71
2022/01/09 04:20:32;;;;;;;12.93;6.70;;;0.70;99.90;;;;;;5076870;28;20930;-70
2022/01/09 04:22:59;;;;;;;9.77;5.30;;;0.70;99.90;;;;;;5076638;28;20463;-71
2022/01/09 04:25:26;;;;;;;10.33;6.33;;;0.80;99.90;;;;;;5076853;28;20760;-70
2022/01/09 04:27:55;;;;;;;8.80;6.00;;;0.80;99.90;;;;;;5076797;28;20458;-70
2022/01/09 04:30:23;;;;;;;11.30;7.13;;;0.80;99.90;;;;;;5077029;28;20466;-70
2022/01/09 04:32:50;;;;;;;10.67;5.93;;;0.80;99.90;;;;;;5076789;28;20450;-70
2022/01/09 04:35:17;;;;;;;13.27;6.17;;;0.80;99.90;;;;;;5077686;28;20465;-70
2022/01/09 04:37:46;;;;;;;7.10;5.40;;;0.80;99.90;;;;;;5079103;28;20459;-70
2022/01/09 04:40:15;;;;;;;8.83;6.27;;;0.80;99.90;;;;;;5077240;28;20478;-70
2022/01/09 04:42:45;;;;;;;8.90;6.70;;;0.80;99.90;;;;;;5076929;28;20454;-70
2022/01/09 04:45:15;;;;;;;7.90;5.70;;;0.80;99.90;;;;;;5076712;28;20464;-70
2022/01/09 04:47:46;;;;;;;12.27;6.03;;;0.80;99.90;;;;;;5076148;28;20489;-69
2022/01/09 04:50:17;;;;;;;6.50;5.43;;;0.80;99.90;;;;;;5076715;28;20434;-69
2022/01/09 04:52:46;;;;;;;7.30;5.40;;;0.80;99.90;;;;;;5076728;28;20489;-70
2022/01/09 04:55:14;;;;;;;6.83;5.70;;;0.80;99.90;;;;;;5076678;28;20787;-70
2022/01/09 04:57:41;;;;;;;7.60;5.67;;;0.80;99.90;;;;;;5076105;28;20462;-71
2022/01/09 05:00:10;;;;;;;9.03;5.63;;;0.80;99.90;;;;;;5076106;28;20493;-69
2022/01/09 05:02:36;;;;;;;8.73;5.50;;;0.80;99.90;;;;;;5076061;28;20454;-70
2022/01/09 05:05:04;;;;;;;9.40;5.60;;;0.90;99.90;;;;;;5075811;28;20462;-70
2022/01/09 05:07:31;;;;;;;6.60;5.63;;;0.90;99.90;;;;;;5075774;28;20459;-71
2022/01/09 05:09:59;;;;;;;5.83;5.20;;;0.80;99.90;;;;;;5075770;28;20964;-70
2022/01/09 05:12:26;;;;;;;5.87;4.57;;;0.90;99.90;;;;;;5076288;28;20787;-69
2022/01/09 05:14:52;;;;;;;6.33;5.57;;;0.90;99.90;;;;;;5075525;28;20462;-70
2022/01/09 05:17:19;;;;;;;9.40;5.63;;;0.90;99.90;;;;;;5075662;28;20945;-70
2022/01/09 05:19:47;;;;;;;10.00;5.17;;;0.90;99.90;;;;;;5075715;28;20481;-69
2022/01/09 05:22:14;;;;;;;9.20;5.53;;;0.80;99.90;;;;;;5076589;28;20454;-70
2022/01/09 05:24:40;;;;;;;6.20;5.00;;;0.80;99.90;;;;;;5075657;28;20465;-70
2022/01/09 05:27:10;;;;;;;7.80;5.20;;;0.90;99.90;;;;;;5075451;28;20465;-69
2022/01/09 05:29:37;;;;;;;7.23;5.43;;;0.90;99.90;;;;;;5075383;28;20458;-69
2022/01/09 05:32:05;;;;;;;9.53;5.27;;;0.80;99.90;;;;;;5075800;28;20458;-70
2022/01/09 05:34:34;;;;;;;6.30;5.40;;;0.80;99.90;;;;;;5075897;28;20454;-69
2022/01/09 05:37:00;;;;;;;8.33;5.63;;;0.80;99.90;;;;;;5076078;28;20467;-70
2022/01/09 05:39:27;;;;;;;8.13;5.20;;;0.80;99.90;;;;;;5075998;28;20458;-70
2022/01/09 05:41:55;;;;;;;7.87;5.50;;;0.80;99.90;;;;;;5075452;28;20557;-70
2022/01/09 05:44:23;;;;;;;5.63;5.00;;;0.90;99.90;;;;;;5075084;28;20949;-69
2022/01/09 05:46:50;;;;;;;7.63;5.47;;;1.00;99.90;;;;;;5075380;28;20846;-70
2022/01/09 05:49:17;;;;;;;7.90;5.80;;;0.90;99.90;;;;;;5074781;28;20862;-70
2022/01/09 05:51:44;;;;;;;8.57;6.00;;;0.90;99.90;;;;;;5075512;28;20454;-70
2022/01/09 05:54:10;;;;;;;6.67;5.17;;;0.80;99.90;;;;;;5074852;28;20813;-70
2022/01/09 05:56:40;;;;;;;10.60;6.20;;;0.90;99.90;;;;;;5075155;28;20915;-70
2022/01/09 05:59:07;;;;;;;9.83;5.30;;;0.80;99.90;;;;;;5075103;28;20758;-70
2022/01/09 06:01:36;;;;;;;8.00;5.83;;;0.80;99.90;;;;;;5075373;28;20918;-70
2022/01/09 06:04:05;;;;;;;7.23;4.93;;;0.90;99.90;;;;;;5074955;28;20512;-70
2022/01/09 06:06:32;;;;;;;11.13;5.63;;;1.00;99.90;;;;;;5074953;28;20462;-71
2022/01/09 06:08:58;;;;;;;9.17;5.80;;;1.00;99.90;;;;;;5075055;28;20462;-71
2022/01/09 06:11:25;;;;;;;6.20;5.00;;;1.00;99.90;;;;;;5075787;28;20450;-71
2022/01/09 06:13:52;;;;;;;7.73;4.97;;;1.00;99.90;;;;;;5076878;28;20458;-70
2022/01/09 06:16:19;;;;;;;5.50;4.37;;;1.00;99.90;;;;;;5075708;28;20458;-70
2022/01/09 06:18:48;;;;;;;6.17;4.80;;;1.10;99.90;;;;;;5075154;28;20462;-71
2022/01/09 06:21:15;;;;;;;7.37;5.80;;;1.10;99.90;;;;;;5075102;28;20474;-70
2022/01/09 06:23:41;;;;;;;7.97;5.07;;;1.20;99.90;;;;;;5074819;28;20465;-70
2022/01/09 06:26:08;;;;;;;8.43;5.57;;;1.20;99.90;;;;;;5074671;28;20910;-70
2022/01/09 06:28:35;;;;;;;8.43;5.03;;;1.20;99.90;;;;;;5074359;28;20461;-70
2022/01/09 06:31:02;;;;;;;11.13;5.20;;;1.20;99.90;;;;;;5074776;28;20469;-70
2022/01/09 06:33:30;;;;;;;6.57;5.20;;;1.20;99.90;;;;;;5074501;28;20458;-70
2022/01/09 06:36:00;;;;;;;5.50;4.90;;;1.20;99.90;;;;;;5074749;28;20914;-70
2022/01/09 06:38:27;;;;;;;8.07;5.30;;;1.30;99.90;;;;;;5077192;28;20466;-70
2022/01/09 06:40:53;;;;;;;7.53;5.07;;;1.20;99.90;;;;;;5079068;28;20783;-71
2022/01/09 06:43:20;;;;;;;8.50;6.07;;;1.20;99.90;;;;;;5078621;28;20458;-71
2022/01/09 06:45:47;;;;;;;7.70;5.87;;;1.20;99.90;;;;;;5079033;28;20725;-71
2022/01/09 06:48:13;;;;;;;7.17;5.17;;;1.20;99.90;;;;;;5078553;28;20478;-71
2022/01/09 06:50:40;;;;;;;5.80;4.67;;;1.10;99.90;;;;;;5078657;28;20632;-71
2022/01/09 06:53:08;;;;;;;6.33;5.37;;;1.10;99.90;;;;;;5078645;28;20480;-70
2022/01/09 06:55:35;;;;;;;7.50;4.50;;;1.10;99.90;;;;;;5078205;28;20454;-71
2022/01/09 06:58:01;;;;;;;10.77;5.60;;;1.20;99.90;;;;;;5078774;28;20549;-70
2022/01/09 07:00:29;;;;;;;6.13;4.83;;;1.30;99.90;;;;;;5078865;28;20783;-71
2022/01/09 07:02:56;;;;;;;7.90;5.73;;;1.30;99.90;;;;;;5078449;28;20459;-70
2022/01/09 07:05:23;;;;;;;9.07;5.37;;;1.40;99.90;;;;;;5079775;28;20454;-69
2022/01/09 07:07:51;;;;;;;7.10;5.60;;;1.40;99.90;;;;;;5079609;28;20523;-69
2022/01/09 07:10:19;;;;;;;6.20;5.60;;;1.50;99.90;;;;;;5080190;28;20541;-72
2022/01/09 07:12:45;;;;;;;9.03;5.20;;;1.40;99.90;;;;;;5080407;28;20527;-71
2022/01/09 07:15:12;;;;;;;7.20;4.83;;;1.50;99.90;;;;;;5078367;28;20473;-69
2022/01/09 07:17:39;;;;;;;6.77;5.43;;;1.50;99.90;;;;;;5077983;28;20793;-70
2022/01/09 07:20:07;;;;;;;10.20;6.13;;;1.40;99.90;;;;;;5078001;28;20816;-70
2022/01/09 07:22:35;;;;;;;6.53;4.90;;;1.40;99.90;;;;;;5077698;28;20922;-71
2022/01/09 07:25:01;;;;;;;8.97;5.40;;;1.30;99.90;;;;;;5078277;28;20473;-70
2022/01/09 07:27:32;;;;;;;8.30;5.83;;;1.30;99.90;;;;;;5077993;28;20469;-70
2022/01/09 07:30:00;;;;;;;9.00;5.87;;;1.40;99.90;;;;;;5078263;28;20442;-69
2022/01/09 07:32:28;;;;;;;7.50;5.70;;;1.40;99.90;;;;;;5077778;28;20483;-70
2022/01/09 07:34:57;;;;;;;13.70;5.90;;;1.40;99.90;;;;;;5077643;28;20454;-70
2022/01/09 07:37:25;;;;;;;6.40;5.30;;;1.40;99.90;;;;;;5078376;28;20523;-70
2022/01/09 07:39:52;;;;;;;10.53;5.60;;;1.50;99.90;;;;;;5078102;28;20466;-70
2022/01/09 07:42:19;;;;;;;7.07;5.20;;;1.50;99.90;;;;;;5078044;28;20490;-70
2022/01/09 07:44:49;;;;;;;7.93;4.80;;;1.50;99.90;;;;;;5077677;28;20457;-70
2022/01/09 07:47:16;;;;;;;10.30;6.17;;;1.60;99.90;;;;;;5077573;28;20551;-73
2022/01/09 07:49:43;;;;;;;9.37;5.73;;;1.60;99.90;;;;;;5077325;28;20465;-71
2022/01/09 07:52:11;;;;;;;10.70;6.20;;;1.60;99.90;;;;;;5078119;28;20465;-70
2022/01/09 07:54:37;;;;;;;6.57;5.77;;;1.60;99.90;;;;;;5077753;28;20465;-70
2022/01/09 07:57:05;;;;;;;13.33;6.20;;;1.70;99.90;;;;;;5078357;28;20458;-72
2022/01/09 07:59:33;;;;;;;10.73;6.20;;;1.80;99.90;;;;;;5077504;28;20930;-71
2022/01/09 08:02:01;;;;;;;9.00;6.00;;;1.80;99.90;;;;;;5078072;28;20485;-72
2022/01/09 08:04:28;;;;;;;11.33;6.97;;;1.80;99.90;;;;;;5077225;28;20520;-70
2022/01/09 08:06:55;;;;;;;10.83;7.00;;;1.80;99.90;;;;;;5077777;28;20926;-69
2022/01/09 08:09:21;;;;;;;12.40;7.00;;;1.90;99.90;;;;;;5077362;28;20462;-70
2022/01/09 08:11:49;;;;;;;10.20;6.80;;;1.90;99.90;;;;;;5077899;28;20455;-71
2022/01/09 08:14:15;;;;;;;9.20;6.20;;;1.90;99.90;;;;;;5077503;28;20486;-72
2022/01/09 08:16:42;;;;;;;7.93;5.40;;;1.90;99.90;;;;;;5077481;28;20454;-70
2022/01/09 08:19:10;;;;;;;11.90;5.83;;;2.00;99.90;;;;;;5077578;28;20458;-69
2022/01/09 08:21:38;;;;;;;8.70;5.97;;;2.00;99.90;;;;;;5077586;28;20478;-71
2022/01/09 08:24:06;;;;;;;6.90;5.90;;;2.00;99.90;;;;;;5077020;28;20454;-70
2022/01/09 08:26:33;;;;;;;10.60;6.27;;;2.00;99.90;;;;;;5076729;28;20450;-71
2022/01/09 08:29:00;;;;;;;10.57;6.43;;;2.10;99.90;;;;;;5076588;28;20458;-70
2022/01/09 08:31:26;;;;;;;9.27;6.37;;;2.10;99.90;;;;;;5076761;28;20450;-71
2022/01/09 08:33:53;;;;;;;11.93;7.00;;;2.10;99.90;;;;;;5076386;28;20459;-72
2022/01/09 08:36:21;;;;;;;13.07;6.53;;;2.10;99.90;;;;;;5076499;28;20462;-70
2022/01/09 08:38:48;;;;;;;10.73;6.80;;;2.20;99.90;;;;;;5076634;28;20766;-70
2022/01/09 08:41:15;;;;;;;10.23;6.40;;;2.20;99.90;;;;;;5076939;28;20561;-71
2022/01/09 08:43:41;;;;;;;14.70;7.33;;;2.10;99.90;;;;;;5076697;28;20485;-70
2022/01/09 08:46:09;;;;;;;9.53;6.20;;;2.10;99.90;;;;;;5076428;28;20469;-70
2022/01/09 08:48:35;;;;;;;11.30;6.40;;;2.20;99.90;;;;;;5076112;28;20532;-71
2022/01/09 08:51:04;;;;;;;11.83;6.07;;;2.20;99.90;;;;;;5077103;28;20469;-70
2022/01/09 08:53:33;;;;;;;7.17;5.77;;;2.20;99.90;;;;;;5076629;28;20485;-71
2022/01/09 08:55:59;;;;;;;7.57;5.40;;;2.20;99.90;;;;;;5076708;28;20480;-70
2022/01/09 08:58:26;;;;;;;7.77;5.43;;;2.20;99.90;;;;;;5077312;28;20466;-70
2022/01/09 09:00:53;;;;;;;7.10;5.83;;;2.20;99.90;;;;;;5076163;28;20465;-70
2022/01/09 09:03:19;;;;;;;10.93;5.93;;;2.30;99.90;;;;;;5078095;28;20508;-70
2022/01/09 09:05:46;;;;;;;7.10;6.37;;;2.30;99.90;;;;;;5077731;28;20458;-72
2022/01/09 09:08:13;;;;;;;8.23;5.60;;;2.40;99.90;;;;;;5077200;28;20454;-70
2022/01/09 09:10:41;;;;;;;6.93;5.50;;;2.50;99.90;;;;;;5076459;28;20459;-71
2022/01/09 09:13:08;;;;;;;7.83;5.97;;;2.60;99.90;;;;;;5076510;28;20783;-71
2022/01/09 09:15:35;;;;;;;6.73;5.90;;;2.60;99.90;;;;;;5076401;28;20465;-71
2022/01/09 09:18:02;;;;;;;10.10;5.70;;;2.60;99.90;;;;;;5076063;28;20466;-72
2022/01/09 09:20:30;;;;;;;8.30;5.77;;;2.70;99.90;;;;;;5076554;28;20454;-71
2022/01/09 09:22:57;;;;;;;7.50;5.50;;;2.70;99.90;;;;;;5075498;28;20479;-71
2022/01/09 09:25:24;;;;;;;8.57;6.10;;;2.70;99.90;;;;;;5076556;28;20458;-70
2022/01/09 09:27:52;;;;;;;8.00;5.73;;;2.70;99.90;;;;;;5076720;28;20462;-70
2022/01/09 09:30:28;;;;;;;7.70;5.57;;;2.70;99.90;;;;;;5076754;28;20826;-71
2022/01/09 09:32:54;;;;;;;8.57;6.20;;;2.80;99.90;;;;;;5075473;28;20552;-70
2022/01/09 09:35:21;;;;;;;7.97;5.90;;;2.80;99.90;;;;;;5075519;28;20469;-71
2022/01/09 09:37:48;;;;;;;7.57;5.33;;;2.80;99.90;;;;;;5075905;28;20462;-71
2022/01/09 09:40:15;;;;;;;6.63;5.07;;;2.90;99.90;;;;;;5075605;28;20454;-71
2022/01/09 09:42:42;;;;;;;6.43;5.10;;;2.70;99.90;;;;;;5074968;28;20474;-71
2022/01/09 09:45:12;;;;;;;7.30;4.93;;;2.80;99.90;;;;;;5075491;28;20480;-69
2022/01/09 09:47:41;;;;;;;5.83;4.87;;;2.80;99.90;;;;;;5075006;28;20486;-71
2022/01/09 09:50:12;;;;;;;9.20;5.27;;;2.70;99.90;;;;;;5075327;28;20458;-70
2022/01/09 09:52:41;;;;;;;7.43;5.57;;;2.80;99.90;;;;;;5075331;28;20530;-70
2022/01/09 09:55:08;;;;;;;16.70;10.80;;;2.90;99.90;;;;;;5075439;28;20454;-71
2022/01/09 09:57:35;;;;;;;6.73;5.40;;;3.10;99.90;;;;;;5075447;28;20458;-70
2022/01/09 10:00:07;;;;;;;6.83;5.70;;;3.00;99.90;;;;;;5075669;28;20462;-70
2022/01/09 10:02:47;;;;;;;7.63;5.87;;;3.00;99.90;;;;;;5074964;28;20462;-70
2022/01/09 10:05:15;;;;;;;12.10;5.73;;;2.90;99.90;;;;;;5074793;28;20438;-70
2022/01/09 10:07:42;;;;;;;8.97;5.70;;;3.00;99.90;;;;;;5074372;28;20462;-71
2022/01/09 10:10:11;;;;;;;6.63;5.30;;;3.10;99.90;;;;;;5074705;28;20454;-70
2022/01/09 10:12:39;;;;;;;6.37;5.27;;;3.10;99.90;;;;;;5075089;28;20462;-70
2022/01/09 10:15:10;;;;;;;6.47;5.30;;;3.20;99.90;;;;;;5074750;28;20469;-70
2022/01/09 10:17:43;;;;;;;8.10;5.50;;;3.20;99.90;;;;;;5074980;28;20449;-70
2022/01/09 10:20:14;;;;;;;6.53;4.70;;;3.30;99.90;;;;;;5075951;28;20526;-70
2022/01/09 10:22:44;;;;;;;7.40;4.60;;;3.30;99.90;;;;;;5075130;28;20949;-71
2022/01/09 10:25:32;;;;;;;10.60;5.20;;;3.40;99.90;;;;;;5075020;28;20603;-71
2022/01/09 10:28:05;;;;;;;5.97;5.10;;;3.50;99.90;;;;;;5070562;28;20464;-71
2022/01/09 10:30:35;;;;;;;7.00;5.00;;;3.50;99.90;;;;;;5075096;28;20473;-71
2022/01/09 10:33:04;;;;;;;6.30;4.70;;;3.60;99.90;;;;;;5077076;28;20446;-70
2022/01/09 10:35:33;;;;;;;6.70;4.10;;;3.70;99.90;;;;;;5075789;28;20477;-71
2022/01/09 10:38:16;;;;;;;8.37;5.40;;;3.80;99.90;;;;;;5075314;28;20461;-70
2022/01/09 10:40:45;;;;;;;8.40;6.10;;;3.80;99.90;;;;;;5074802;28;20827;-70
2022/01/09 10:43:16;;;;;;;6.07;5.03;;;3.90;99.90;;;;;;5074974;28;20805;-71
2022/01/09 10:45:46;;;;;;;5.93;5.10;;;3.90;99.90;;;;;;5075558;28;20443;-71
2022/01/09 10:48:17;;;;;;;7.57;5.60;;;3.80;99.90;;;;;;5075355;28;20543;-71
2022/01/09 10:50:47;;;;;;;7.47;5.10;;;3.90;99.90;;;;;;5074769;28;20926;-71
2022/01/09 10:53:20;;;;;;;9.73;4.97;;;3.90;99.90;;;;;;5074939;28;20458;-70
2022/01/09 10:55:48;;;;;;;9.13;5.23;;;3.90;99.90;;;;;;5074736;28;20870;-71
2022/01/09 10:58:20;;;;;;;9.27;4.93;;;4.00;99.90;;;;;;5074415;28;20458;-71
2022/01/09 11:00:47;;;;;;;8.63;4.87;;;4.10;99.90;;;;;;5073702;28;20945;-70
2022/01/09 11:03:17;;;;;;;7.80;5.40;;;4.10;99.90;;;;;;5073845;28;20486;-71
2022/01/09 11:05:46;;;;;;;7.60;4.70;;;4.10;99.90;;;;;;5074465;28;20802;-71
2022/01/09 11:08:15;;;;;;;6.40;4.87;;;4.10;99.90;;;;;;5073792;28;20968;-70
2022/01/09 11:10:43;;;;;;;7.03;4.97;;;4.00;99.90;;;;;;5074617;28;20969;-71
2022/01/09 11:13:14;;;;;;;6.50;4.77;;;4.00;99.90;;;;;;5074076;28;20493;-70
2022/01/09 11:16:32;;;;;;;6.43;4.93;;;4.00;99.90;;;;;;5074483;28;20538;-70
2022/01/09 11:18:31;;;;;;;8.73;4.83;;;4.00;99.90;;;;;;5073723;28;20458;-71
2022/01/09 11:21:00;;;;;;;6.10;5.13;;;4.10;99.90;;;;;;5074690;28;20454;-72
2022/01/09 11:23:35;;;;;;;5.13;4.57;;;4.10;99.90;;;;;;5074884;28;20482;-70
2022/01/09 11:26:06;;;;;;;6.70;5.27;;;4.20;99.90;;;;;;5077799;28;20527;-71
2022/01/09 11:28:37;;;;;;;6.50;4.80;;;4.20;99.90;;;;;;5077716;28;20449;-71
2022/01/09 11:31:15;;;;;;;6.60;5.07;;;4.30;99.90;;;;;;5077733;28;20450;-70
2022/01/09 11:33:53;;;;;;;7.27;4.57;;;4.20;99.90;;;;;;5077618;28;20438;-71
2022/01/09 11:36:29;;;;;;;6.70;4.80;;;4.20;99.90;;;;;;5078218;28;20711;-71
2022/01/09 11:39:02;;;;;;;9.77;6.50;;;4.20;99.90;;;;;;5077545;28;20449;-71
2022/01/09 11:41:33;;;;;;;7.20;5.47;;;4.30;99.90;;;;;;5077550;28;20872;-71
2022/01/09 11:44:06;;;;;;;8.40;5.37;;;4.30;99.90;;;;;;5077630;28;20545;-70
2022/01/09 11:46:58;;;;;;;6.90;5.23;;;4.20;99.90;;;;;;5077675;28;20546;-70
2022/01/09 11:49:26;;;;;;;5.83;4.60;;;4.20;99.90;;;;;;5077781;28;20465;-71
2022/01/09 11:51:55;;;;;;;6.10;4.50;;;4.20;99.90;;;;;;5077849;28;20460;-69
2022/01/09 11:54:22;;;;;;;7.20;4.73;;;4.20;99.90;;;;;;5077401;28;20458;-71
2022/01/09 11:56:57;;;;;;;5.27;4.70;;;4.20;99.90;;;;;;5077499;28;20454;-71
2022/01/09 11:59:27;;;;;;;6.40;4.73;;;4.20;99.90;;;;;;5079639;28;20453;-71
2022/01/09 12:01:57;;;;;;;4.63;4.10;;;4.20;99.90;;;;;;5077408;28;20497;-70
2022/01/09 12:05:06;;;;;;;6.90;4.70;;;4.30;99.90;;;;;;5078860;28;20451;-71
2022/01/09 12:08:04;;;;;;;6.50;4.70;;;4.40;99.90;;;;;;5077823;28;20521;-71
2022/01/09 12:10:35;;;;;;;6.90;4.60;;;4.50;99.90;;;;;;5077697;28;20508;-70
2022/01/09 12:13:05;;;;;;;6.13;4.87;;;4.50;99.90;;;;;;5077456;28;20443;-70
2022/01/09 12:15:37;;;;;;;5.70;4.23;;;4.50;99.90;;;;;;5076701;28;20469;-70
2022/01/09 12:18:07;;;;;;;7.67;4.57;;;4.50;99.90;;;;;;5076717;28;20458;-70
2022/01/09 12:20:40;;;;;;;7.70;4.90;;;4.60;99.90;;;;;;5077239;28;20504;-70
2022/01/09 12:23:08;;;;;;;5.57;4.70;;;4.50;99.90;;;;;;5077431;28;20778;-71
2022/01/09 12:25:45;;;;;;;6.17;4.97;;;4.60;99.90;;;;;;5077520;28;20755;-70
2022/01/09 12:28:14;;;;;;;8.70;4.70;;;4.60;99.90;;;;;;5077738;28;20838;-71
2022/01/09 12:30:50;;;;;;;5.60;4.40;;;4.50;99.90;;;;;;5078266;28;20495;-70
2022/01/09 12:33:45;;;;;;;6.20;4.43;;;4.50;99.90;;;;;;5076752;28;20954;-71
2022/01/09 12:36:14;;;;;;;4.73;4.23;;;4.50;99.90;;;;;;5076153;28;20452;-70
2022/01/09 12:38:43;;;;;;;7.97;5.00;;;4.60;99.90;;;;;;5076690;28;20458;-70
2022/01/09 12:41:14;;;;;;;5.70;5.10;;;4.60;99.90;;;;;;5077081;28;20454;-70
2022/01/09 12:43:41;;;;;;;9.33;5.23;;;4.70;99.90;;;;;;5076473;28;20463;-71
2022/01/09 12:46:10;;;;;;;5.67;3.73;;;4.80;99.90;;;;;;5076560;28;20848;-71
2022/01/09 12:48:40;;;;;;;7.07;4.40;;;4.90;99.90;;;;;;5075945;28;20486;-70
2022/01/09 12:51:12;;;;;;;5.83;4.53;;;4.90;99.90;;;;;;5076747;28;20458;-70
2022/01/09 12:53:40;;;;;;;7.20;4.70;;;4.90;99.90;;;;;;5076619;28;20465;-70
2022/01/09 12:56:13;;;;;;;5.80;4.30;;;4.90;99.90;;;;;;5076277;28;20762;-71
2022/01/09 12:58:41;;;;;;;7.30;3.83;;;4.90;99.90;;;;;;5076241;28;20450;-71
2022/01/09 13:01:17;;;;;;;7.50;5.33;;;5.00;99.90;;;;;;5076403;28;20537;-70
2022/01/09 13:03:47;;;;;;;6.70;4.83;;;4.80;99.90;;;;;;5075433;28;20922;-71
2022/01/09 13:06:16;;;;;;;6.47;5.20;;;4.80;99.90;;;;;;5076523;28;20454;-71